Pagrindinis puslapis
METAR-TAF:

METAR-TAF

Oro uostai :

Bluefields, Nikaragva

platuma: 12-00N, ilguma: 083-46W, Aukštis: 5 m

Dabartinis oras

Ataskaita buvo paskelbta 51 minutes, ne 22:00 UTC
Vėjas 4 kt iš Rytų
Temperatūra 29°C
Drėgmė 70%
Slėgis 1014 hPa
Matomumas 10 km arba daugiau
Išsisklaidę debesys ne aukštis 1700 ft

METAR: MNBL 202200Z 08004KT 9999 SCT017 29/23 Q1014

Laikas: 16:51 (22:51 UTC)

Prognozė

Ataskaita buvo paskelbta 7 valandos ir 21 minutes, ne 15:30 UTC
Prognozė galioja nuo 21 metu 18 UTC su 22 metu 18 UTC
Vėjas 10 kt iš Rytų/Šiaurės Rytų
Matomumas 10 km arba daugiau
Išsisklaidę debesys ne aukštis 1800 ft
Nuo 22 metu 0500 UTC
Vėjas 6 kt iš Šiaurės
Laikinai
nuo 22 metu 08 UTC su 22 metu 13 UTC
Matomumas: 6000 m
Su prošvaistėmis ne aukštis 1600 ft
netoliese, lietus

TAF: MNBL 211530Z 2118/2218 07010KT 9999 SCT018 FM220500 36006KT TEMPO 2208/2213 6000 VCRA BKN016

Orai ataskaitas ir orų prognozės (METAR, TAF).

turimą stotys yra geltonos ir raudonos taškus žemėlapyje.

Perkelti pele per norėdami pamatyti stoties vardą.

Tada spustelėkite, norėdami matyti oro stebėjimo ir prognozės.

Norėdami pakeisti žemėlapį: spustelėkite ant žalios mygtukų su juodo kryžiaus žemyn,; žalią mygtuką su brūkšneliu, jei norite nutolinti; arba žalių rodyklių gretimoms žemėlapius.


METAR-TAF: